Time;durP1;ratioP1;P1;durP2;ratioP2;P2;SDS_P1;SDS_P2;PMS_P1;PMS_P2;Temp;Humidity;BMP_temperature;BMP_pressure;BME280_temperature;BME280_humidity;BME280_pressure;Samples;Min_cycle;Max_cycle;Signal;HPM_P1;HPM_P2
2023/03/13 00:01:01;;;;;;;16.10;4.53;;;11.90;99.90;;;;;;2035567;29;20036;-72
2023/03/13 00:02:01;;;;;;;18.27;4.78;;;11.90;99.90;;;;;;2033604;29;20023;-72
2023/03/13 00:03:02;;;;;;;19.25;4.78;;;11.90;99.90;;;;;;2033123;29;20039;-72
2023/03/13 00:04:03;;;;;;;28.27;5.78;;;11.90;99.90;;;;;;2035083;29;20047;-72
2023/03/13 00:05:03;;;;;;;18.05;4.82;;;11.90;99.90;;;;;;2037141;29;20027;-72
2023/03/13 00:06:04;;;;;;;20.38;5.75;;;11.90;99.90;;;;;;2036530;29;20059;-72
2023/03/13 00:07:06;;;;;;;21.08;6.20;;;11.90;99.90;;;;;;2036288;29;20665;-72
2023/03/13 00:08:06;;;;;;;18.83;5.63;;;11.90;99.90;;;;;;2037592;29;20538;-72
2023/03/13 00:09:10;;;;;;;19.42;6.13;;;11.90;99.90;;;;;;2036487;29;20795;-72
2023/03/13 00:10:11;;;;;;;18.75;5.75;;;11.90;99.90;;;;;;2034414;29;20040;-72
2023/03/13 00:11:14;;;;;;;19.52;5.25;;;11.90;99.90;;;;;;2036659;29;20138;-72
2023/03/13 00:12:14;;;;;;;20.65;5.32;;;11.90;99.90;;;;;;2038353;29;20024;-72
2023/03/13 00:13:16;;;;;;;20.08;6.55;;;11.90;99.90;;;;;;2035571;29;20107;-72
2023/03/13 00:14:17;;;;;;;20.00;5.72;;;11.90;99.90;;;;;;2035806;29;20038;-72
2023/03/13 00:15:17;;;;;;;17.67;5.28;;;11.90;99.90;;;;;;2035356;29;20043;-72
2023/03/13 00:16:18;;;;;;;24.02;6.15;;;11.90;99.90;;;;;;2036071;29;20032;-72
2023/03/13 00:17:18;;;;;;;20.92;5.28;;;11.90;99.90;;;;;;2036584;29;20118;-72
2023/03/13 00:18:19;;;;;;;21.27;5.15;;;12.00;99.90;;;;;;2036109;29;20035;-72
2023/03/13 00:19:19;;;;;;;18.25;4.65;;;12.00;99.90;;;;;;2028309;29;20028;-72
2023/03/13 00:20:20;;;;;;;16.80;5.05;;;12.00;99.90;;;;;;2028666;29;20146;-72
2023/03/13 00:21:23;;;;;;;26.52;5.45;;;12.00;99.90;;;;;;2035567;29;20047;-72
2023/03/13 00:22:24;;;;;;;21.45;4.35;;;12.00;99.90;;;;;;2035923;29;20032;-72
2023/03/13 00:23:24;;;;;;;20.80;5.13;;;12.00;99.90;;;;;;2036100;29;20024;-72
2023/03/13 00:24:25;;;;;;;22.52;5.18;;;12.00;99.90;;;;;;2035276;29;20044;-72
2023/03/13 00:25:25;;;;;;;21.33;5.50;;;12.00;99.90;;;;;;2035847;29;20056;-72
2023/03/13 00:26:27;;;;;;;25.35;6.43;;;12.00;99.90;;;;;;2036933;29;20024;-72
2023/03/13 00:27:32;;;;;;;20.20;5.35;;;12.00;99.90;;;;;;2036738;29;20035;-72
2023/03/13 00:28:35;;;;;;;20.80;5.68;;;12.00;99.90;;;;;;2036326;29;20012;-72
2023/03/13 00:29:35;;;;;;;17.73;4.80;;;12.00;99.90;;;;;;2036589;29;20019;-72
2023/03/13 00:30:36;;;;;;;19.70;5.28;;;12.00;99.90;;;;;;2034490;29;20031;-72
2023/03/13 00:31:36;;;;;;;24.63;5.13;;;12.00;99.90;;;;;;2037479;29;20048;-72
2023/03/13 00:32:45;;;;;;;22.67;5.32;;;12.00;99.90;;;;;;2036055;29;20039;-72
2023/03/13 00:33:48;;;;;;;22.00;5.05;;;12.00;99.90;;;;;;2035283;29;20571;-72
2023/03/13 00:34:48;;;;;;;17.52;5.07;;;12.00;99.90;;;;;;2036066;29;20051;-72
2023/03/13 00:35:49;;;;;;;20.75;5.55;;;12.00;99.90;;;;;;2035663;29;20059;-72
2023/03/13 00:36:49;;;;;;;20.35;5.07;;;12.00;99.90;;;;;;2037066;29;20070;-72
2023/03/13 00:37:51;;;;;;;21.05;5.25;;;12.10;99.90;;;;;;2034624;29;20063;-72
2023/03/13 00:38:52;;;;;;;22.67;6.15;;;12.00;99.90;;;;;;2035739;29;20035;-72
2023/03/13 00:39:53;;;;;;;20.65;5.93;;;12.10;99.90;;;;;;2024852;29;20032;-72
2023/03/13 00:41:01;;;;;;;18.33;4.72;;;12.00;99.90;;;;;;2027203;29;20535;-72
2023/03/13 00:42:02;;;;;;;25.00;5.07;;;12.00;99.90;;;;;;2036135;29;20032;-72
2023/03/13 00:43:03;;;;;;;24.88;6.15;;;12.10;99.90;;;;;;2037127;29;20047;-72
2023/03/13 00:44:03;;;;;;;20.23;4.82;;;12.00;99.90;;;;;;2036214;29;20087;-72
2023/03/13 00:45:05;;;;;;;19.20;5.05;;;12.00;99.90;;;;;;2034851;29;20432;-72
2023/03/13 00:46:06;;;;;;;16.20;4.82;;;12.00;99.90;;;;;;2035996;29;20489;-72
2023/03/13 00:47:06;;;;;;;17.85;5.68;;;12.00;99.90;;;;;;2035970;29;20095;-72
2023/03/13 00:48:07;;;;;;;15.38;5.00;;;12.00;99.90;;;;;;2036632;29;20074;-72
2023/03/13 00:49:07;;;;;;;20.00;5.50;;;12.00;99.90;;;;;;2036311;29;20035;-71
2023/03/13 00:50:08;;;;;;;15.88;6.13;;;12.00;99.90;;;;;;2034820;29;20198;-72
2023/03/13 00:51:09;;;;;;;21.08;5.93;;;12.00;99.90;;;;;;2035655;29;20059;-72
2023/03/13 00:52:10;;;;;;;17.55;4.90;;;12.00;99.90;;;;;;2035983;29;20448;-72
2023/03/13 00:53:10;;;;;;;20.35;5.85;;;12.00;99.90;;;;;;2036430;29;20028;-72
2023/03/13 00:54:11;;;;;;;22.88;5.63;;;12.00;99.90;;;;;;2034395;29;20028;-72
2023/03/13 00:55:11;;;;;;;21.08;5.78;;;12.00;99.90;;;;;;2035591;29;20099;-72
2023/03/13 00:56:17;;;;;;;20.38;4.82;;;12.00;99.90;;;;;;2034893;29;20087;-72
2023/03/13 00:57:17;;;;;;;21.30;5.15;;;12.00;99.90;;;;;;2037218;29;20126;-72
2023/03/13 00:58:18;;;;;;;20.17;4.72;;;12.00;99.90;;;;;;2035383;29;20487;-72
2023/03/13 00:59:19;;;;;;;23.40;5.28;;;12.00;99.90;;;;;;2036651;29;20122;-72
2023/03/13 01:00:20;;;;;;;18.50;4.90;;;12.00;99.90;;;;;;2034768;29;20420;-72
2023/03/13 01:01:24;;;;;;;23.98;5.32;;;12.00;99.90;;;;;;2033998;29;20107;-72
2023/03/13 01:02:25;;;;;;;25.23;6.13;;;12.10;99.90;;;;;;2036594;29;20028;-72
2023/03/13 01:03:25;;;;;;;27.15;5.45;;;12.10;99.90;;;;;;2035701;29;20103;-72
2023/03/13 01:04:26;;;;;;;19.40;5.13;;;12.00;99.90;;;;;;2035237;29;20035;-72
2023/03/13 01:05:27;;;;;;;20.65;5.13;;;12.00;99.90;;;;;;2035202;29;20519;-72
2023/03/13 01:06:30;;;;;;;18.08;5.20;;;12.00;99.90;;;;;;2034588;29;20530;-72
2023/03/13 01:07:30;;;;;;;21.65;4.63;;;12.00;99.90;;;;;;2037626;29;20027;-72
2023/03/13 01:08:31;;;;;;;18.02;5.00;;;12.00;99.90;;;;;;2035861;29;20488;-72
2023/03/13 01:09:31;;;;;;;26.05;5.80;;;12.00;99.90;;;;;;2035636;29;20359;-72
2023/03/13 01:10:32;;;;;;;20.27;5.00;;;12.00;99.90;;;;;;2035349;29;20048;-72
2023/03/13 01:11:38;;;;;;;19.13;4.53;;;12.00;99.90;;;;;;2035279;29;20478;-72
2023/03/13 01:12:38;;;;;;;23.00;5.18;;;12.00;99.90;;;;;;2035233;29;20107;-72
2023/03/13 01:13:39;;;;;;;18.38;4.55;;;12.00;99.90;;;;;;2035406;29;20028;-72
2023/03/13 01:14:39;;;;;;;21.15;4.95;;;12.00;99.90;;;;;;2036336;29;20575;-72
2023/03/13 01:15:40;;;;;;;23.55;4.80;;;12.00;99.90;;;;;;2027910;29;20032;-72
2023/03/13 01:16:41;;;;;;;16.58;4.63;;;12.00;99.90;;;;;;2027612;29;20132;-72
2023/03/13 01:17:43;;;;;;;22.75;5.00;;;12.00;99.90;;;;;;2036952;29;20035;-72
2023/03/13 01:18:46;;;;;;;17.73;4.88;;;11.90;99.90;;;;;;2036320;29;20084;-72
2023/03/13 01:19:47;;;;;;;16.27;4.47;;;11.90;99.90;;;;;;2035167;29;20028;-72
2023/03/13 01:20:47;;;;;;;26.25;6.10;;;11.90;99.90;;;;;;2036836;29;20480;-72
2023/03/13 01:21:48;;;;;;;19.67;5.30;;;11.90;99.90;;;;;;2035699;29;20550;-72
2023/03/13 01:22:48;;;;;;;20.35;4.88;;;11.90;99.90;;;;;;2032994;29;20016;-72
2023/03/13 01:23:50;;;;;;;20.60;5.13;;;11.90;99.90;;;;;;2036995;29;20034;-72
2023/03/13 01:24:52;;;;;;;16.35;5.00;;;11.90;99.90;;;;;;2036045;29;20032;-72
2023/03/13 01:25:54;;;;;;;14.32;3.97;;;11.90;99.90;;;;;;2035889;29;20059;-72
2023/03/13 01:26:55;;;;;;;21.23;4.93;;;11.90;99.90;;;;;;2035837;29;20020;-72
2023/03/13 01:27:55;;;;;;;15.95;4.60;;;11.90;99.90;;;;;;2036235;29;20028;-72
2023/03/13 01:28:56;;;;;;;21.33;4.85;;;11.90;99.90;;;;;;2036919;29;20091;-72
2023/03/13 01:29:57;;;;;;;19.40;4.57;;;11.90;99.90;;;;;;2035242;29;20107;-72
2023/03/13 01:30:58;;;;;;;15.70;4.55;;;11.90;99.90;;;;;;2036185;29;20748;-72
2023/03/13 01:31:59;;;;;;;18.60;5.20;;;11.90;99.90;;;;;;2035856;29;20399;-72
2023/03/13 01:33:01;;;;;;;17.05;5.03;;;11.80;99.90;;;;;;2034679;29;20040;-72
2023/03/13 01:34:04;;;;;;;18.35;5.28;;;11.80;99.90;;;;;;2033707;29;20582;-72
2023/03/13 01:35:05;;;;;;;20.63;5.15;;;11.90;99.90;;;;;;2035659;29;20582;-72
2023/03/13 01:36:06;;;;;;;15.93;4.63;;;11.90;99.90;;;;;;2029140;29;20032;-72
2023/03/13 01:37:07;;;;;;;22.25;5.75;;;11.90;99.90;;;;;;2029771;29;20999;-71
2023/03/13 01:38:08;;;;;;;22.38;5.13;;;11.80;99.90;;;;;;2037048;29;20636;-72
2023/03/13 01:39:08;;;;;;;17.30;4.93;;;11.90;99.90;;;;;;2036253;29;20360;-72
2023/03/13 01:40:10;;;;;;;19.45;4.53;;;11.90;99.90;;;;;;2035625;29;20029;-72
2023/03/13 01:41:11;;;;;;;21.95;5.03;;;11.90;99.90;;;;;;2036682;29;20026;-72
2023/03/13 01:42:13;;;;;;;18.73;4.65;;;11.90;99.90;;;;;;2035393;29;20043;-72
2023/03/13 01:43:23;;;;;;;17.42;4.72;;;11.80;99.90;;;;;;2035150;29;20215;-72
2023/03/13 01:44:25;;;;;;;21.83;5.22;;;11.80;99.90;;;;;;2036410;29;20028;-72
2023/03/13 01:45:58;;;;;;;24.40;5.05;;;11.80;99.90;;;;;;2035303;29;20042;-72
2023/03/13 01:46:59;;;;;;;21.15;5.00;;;11.80;99.90;;;;;;2034459;29;20032;-72
2023/03/13 01:47:59;;;;;;;23.40;5.05;;;11.80;99.90;;;;;;2035133;29;20036;-72
2023/03/13 01:49:15;;;;;;;16.55;4.35;;;11.80;99.90;;;;;;2036519;29;20110;-72
2023/03/13 01:50:16;;;;;;;19.90;5.55;;;11.80;99.90;;;;;;2034120;29;20043;-72
2023/03/13 01:51:25;;;;;;;17.10;4.47;;;11.70;99.90;;;;;;2035113;29;20028;-72
2023/03/13 01:52:29;;;;;;;20.30;4.13;;;11.80;99.90;;;;;;2034442;29;20356;-72
2023/03/13 01:53:33;;;;;;;17.27;4.38;;;11.70;99.90;;;;;;2035418;29;20034;-72
2023/03/13 01:54:54;;;;;;;22.65;4.90;;;11.70;99.90;;;;;;2036041;29;20043;-72
2023/03/13 01:55:56;;;;;;;17.40;4.95;;;11.70;99.90;;;;;;2034266;29;20044;-72
2023/03/13 01:57:08;;;;;;;19.92;4.32;;;11.70;99.90;;;;;;2035089;29;20032;-72
2023/03/13 01:58:09;;;;;;;17.75;4.82;;;11.70;99.90;;;;;;2035707;29;20036;-72
2023/03/13 01:59:13;;;;;;;22.65;4.90;;;11.70;99.90;;;;;;2038426;29;20027;-72
2023/03/13 02:00:22;;;;;;;19.13;4.43;;;11.70;99.90;;;;;;2037362;29;20026;-73
2023/03/13 02:01:23;;;;;;;19.80;4.70;;;11.70;99.90;;;;;;2037948;29;20127;-73
2023/03/13 02:02:25;;;;;;;18.33;4.43;;;11.70;99.90;;;;;;2036840;29;20102;-73
2023/03/13 02:03:27;;;;;;;21.27;4.88;;;11.70;99.90;;;;;;2036609;29;20016;-73
2023/03/13 02:04:33;;;;;;;18.23;4.55;;;11.70;99.90;;;;;;2038042;29;20119;-73
2023/03/13 02:05:34;;;;;;;20.05;4.47;;;11.70;99.90;;;;;;2035551;29;20028;-73
2023/03/13 02:06:40;;;;;;;15.63;4.82;;;11.70;99.90;;;;;;2030526;29;20122;-73
2023/03/13 02:07:47;;;;;;;23.63;5.57;;;11.70;99.90;;;;;;2031750;29;20031;-74
2023/03/13 02:08:57;;;;;;;23.08;4.80;;;11.70;99.90;;;;;;2036944;29;20098;-74
2023/03/13 02:09:59;;;;;;;21.23;5.47;;;11.60;99.90;;;;;;2036461;29;20071;-73
2023/03/13 02:11:26;;;;;;;18.23;4.80;;;11.60;99.90;;;;;;2037208;29;20812;-73
2023/03/13 02:12:34;;;;;;;25.10;6.20;;;11.60;99.90;;;;;;2035978;29;20043;-73
2023/03/13 02:13:35;;;;;;;13.85;3.75;;;11.60;99.90;;;;;;2037556;29;20025;-73
2023/03/13 02:14:38;;;;;;;17.48;4.47;;;11.60;99.90;;;;;;2035861;29;20030;-73
2023/03/13 02:15:40;;;;;;;20.52;4.53;;;11.60;99.90;;;;;;2036921;29;20024;-74
2023/03/13 02:16:46;;;;;;;21.90;4.65;;;11.60;99.90;;;;;;2036449;29;20062;-74
2023/03/13 02:17:49;;;;;;;21.00;4.47;;;11.60;99.90;;;;;;2037401;29;20078;-73
2023/03/13 02:18:49;;;;;;;24.58;4.50;;;11.60;99.90;;;;;;2037350;29;20036;-73
2023/03/13 02:19:51;;;;;;;16.67;4.03;;;11.60;99.90;;;;;;2027946;29;20068;-73
2023/03/13 02:20:59;;;;;;;18.27;4.30;;;11.60;99.90;;;;;;2028562;29;20032;-73
2023/03/13 02:22:19;;;;;;;18.83;4.88;;;11.60;99.90;;;;;;2035973;29;20028;-73
2023/03/13 02:23:27;;;;;;;18.00;4.45;;;11.60;99.90;;;;;;2036849;29;20024;-73
2023/03/13 02:24:41;;;;;;;18.45;4.57;;;11.50;99.90;;;;;;2035748;29;20367;-73
2023/03/13 02:25:48;;;;;;;18.17;4.45;;;11.50;99.90;;;;;;2037515;29;20027;-73
2023/03/13 02:26:48;;;;;;;18.35;5.45;;;11.50;99.90;;;;;;2037574;29;20028;-74
2023/03/13 02:28:07;;;;;;;18.13;4.60;;;11.50;99.90;;;;;;2035594;29;20059;-74
2023/03/13 02:29:16;;;;;;;21.90;5.30;;;11.50;99.90;;;;;;2034754;29;20020;-73
2023/03/13 02:30:17;;;;;;;17.77;4.18;;;11.50;99.90;;;;;;2036776;29;20055;-73
2023/03/13 02:31:18;;;;;;;16.08;4.60;;;11.50;99.90;;;;;;2029125;29;20036;-74
2023/03/13 02:32:20;;;;;;;21.02;4.80;;;11.50;99.90;;;;;;2026906;29;20438;-72
2023/03/13 02:33:26;;;;;;;20.60;4.97;;;11.50;99.90;;;;;;2036338;29;20032;-74
2023/03/13 02:34:31;;;;;;;21.00;4.82;;;11.50;99.90;;;;;;2035661;29;20031;-74
2023/03/13 02:35:32;;;;;;;22.63;4.25;;;11.50;99.90;;;;;;2035229;29;20569;-74
2023/03/13 02:36:33;;;;;;;18.63;4.57;;;11.50;99.90;;;;;;2037212;29;20036;-74
2023/03/13 02:37:34;;;;;;;18.73;4.25;;;11.50;99.90;;;;;;2037151;29;20057;-74
2023/03/13 02:38:54;;;;;;;22.35;4.88;;;11.50;99.90;;;;;;2035071;29;20032;-74
2023/03/13 02:39:55;;;;;;;19.20;4.70;;;11.50;99.90;;;;;;2036508;29;20133;-74
2023/03/13 02:40:58;;;;;;;17.38;4.20;;;11.50;99.90;;;;;;2035069;29;20024;-74
2023/03/13 02:42:01;;;;;;;20.42;5.38;;;11.50;99.90;;;;;;2036636;29;20031;-74
2023/03/13 02:43:09;;;;;;;17.88;4.40;;;11.50;99.90;;;;;;2027062;29;20511;-74
2023/03/13 02:44:10;;;;;;;16.55;4.28;;;11.50;99.90;;;;;;2027509;29;20827;-74
2023/03/13 02:45:16;;;;;;;17.85;4.60;;;11.50;99.90;;;;;;2035771;29;20616;-74
2023/03/13 02:46:22;;;;;;;19.83;4.88;;;11.50;99.90;;;;;;2035471;29;20034;-74
2023/03/13 02:47:24;;;;;;;19.13;4.97;;;11.50;99.90;;;;;;2037413;29;20016;-74
2023/03/13 02:48:32;;;;;;;20.15;4.40;;;11.50;99.90;;;;;;2037286;29;20028;-74
2023/03/13 02:49:32;;;;;;;14.15;4.07;;;11.50;99.90;;;;;;2036350;29;20024;-74
2023/03/13 02:50:35;;;;;;;14.85;3.88;;;11.50;99.90;;;;;;2035645;29;20034;-74
2023/03/13 02:51:42;;;;;;;20.48;5.65;;;11.50;99.90;;;;;;2036533;29;20115;-74
2023/03/13 02:52:47;;;;;;;15.18;3.67;;;11.50;99.90;;;;;;2035933;29;20491;-74
2023/03/13 02:53:49;;;;;;;18.92;4.43;;;11.50;99.90;;;;;;2037487;29;20047;-74
2023/03/13 02:54:56;;;;;;;15.13;4.43;;;11.50;99.90;;;;;;2036977;29;20842;-74
2023/03/13 02:55:57;;;;;;;16.90;4.82;;;11.50;99.90;;;;;;2037391;29;20035;-74
2023/03/13 02:57:01;;;;;;;16.13;4.13;;;11.50;99.90;;;;;;2036598;29;20514;-74
2023/03/13 02:58:01;;;;;;;13.18;3.70;;;11.50;99.90;;;;;;2037340;29;20031;-74
2023/03/13 02:59:02;;;;;;;19.45;4.63;;;11.50;99.90;;;;;;2036409;29;20040;-74
2023/03/13 03:00:05;;;;;;;13.50;4.15;;;11.50;99.90;;;;;;2035975;29;20361;-74
2023/03/13 03:01:06;;;;;;;16.75;4.45;;;11.50;99.90;;;;;;2035762;29;20493;-74
2023/03/13 03:02:07;;;;;;;16.73;4.07;;;11.60;99.90;;;;;;2036205;29;20048;-74
2023/03/13 03:03:07;;;;;;;14.18;3.20;;;11.60;99.90;;;;;;2037504;29;20650;-74
2023/03/13 03:04:08;;;;;;;14.00;3.70;;;11.60;99.90;;;;;;2036895;29;20050;-74
2023/03/13 03:05:10;;;;;;;14.52;4.05;;;11.60;99.90;;;;;;2037869;29;20019;-74
2023/03/13 03:06:10;;;;;;;17.42;4.38;;;11.60;99.90;;;;;;2036067;29;20030;-74
2023/03/13 03:07:11;;;;;;;17.45;3.95;;;11.60;99.90;;;;;;2036281;29;21091;-74
2023/03/13 03:08:11;;;;;;;15.43;4.00;;;11.60;99.90;;;;;;2037758;29;20035;-74
2023/03/13 03:09:12;;;;;;;16.67;3.75;;;11.60;99.90;;;;;;2038421;29;20032;-74
2023/03/13 03:10:12;;;;;;;16.58;4.03;;;11.60;99.90;;;;;;2035531;29;20051;-74
2023/03/13 03:11:13;;;;;;;12.80;3.50;;;11.60;99.90;;;;;;2035298;29;20083;-74
2023/03/13 03:12:14;;;;;;;18.42;5.00;;;11.60;99.90;;;;;;2036707;29;20031;-74
2023/03/13 03:13:14;;;;;;;14.68;3.80;;;11.60;99.90;;;;;;2036670;29;20036;-74
2023/03/13 03:14:15;;;;;;;13.40;3.78;;;11.60;99.90;;;;;;2035424;29;20038;-74
2023/03/13 03:15:16;;;;;;;13.45;3.58;;;11.60;99.90;;;;;;2037245;29;20027;-74
2023/03/13 03:16:19;;;;;;;17.83;3.85;;;11.60;99.90;;;;;;2035759;29;20486;-74
2023/03/13 03:17:20;;;;;;;12.93;4.13;;;11.60;99.90;;;;;;2036632;29;20035;-74
2023/03/13 03:18:20;;;;;;;16.80;4.95;;;11.60;99.90;;;;;;2035937;29;20035;-73
2023/03/13 03:19:21;;;;;;;12.77;3.67;;;11.60;99.90;;;;;;2037038;29;20113;-73
2023/03/13 03:20:21;;;;;;;17.35;4.07;;;11.60;99.90;;;;;;2035201;29;20027;-73
2023/03/13 03:21:22;;;;;;;18.67;4.15;;;11.60;99.90;;;;;;2037272;29;20027;-73
2023/03/13 03:22:23;;;;;;;16.73;3.85;;;11.60;99.90;;;;;;2036612;29;20028;-73
2023/03/13 03:23:23;;;;;;;11.27;3.35;;;11.60;99.90;;;;;;2035524;29;20555;-73
2023/03/13 03:24:24;;;;;;;11.50;3.67;;;11.60;99.90;;;;;;2036952;29;20074;-74
2023/03/13 03:25:25;;;;;;;15.93;3.92;;;11.60;99.90;;;;;;2036239;29;20035;-74
2023/03/13 03:26:25;;;;;;;14.43;3.03;;;11.60;99.90;;;;;;2028535;29;20032;-74
2023/03/13 03:27:26;;;;;;;9.63;3.15;;;11.60;99.90;;;;;;2028275;29;20034;-74
2023/03/13 03:28:27;;;;;;;15.70;3.80;;;11.60;99.90;;;;;;2036396;29;20487;-73
2023/03/13 03:29:27;;;;;;;19.20;4.47;;;11.70;99.90;;;;;;2037042;29;20110;-73
2023/03/13 03:30:28;;;;;;;14.65;3.92;;;11.60;99.90;;;;;;2034559;29;20028;-74
2023/03/13 03:31:29;;;;;;;13.25;3.72;;;11.60;99.90;;;;;;2035615;29;20034;-73
2023/03/13 03:32:30;;;;;;;16.98;3.50;;;11.70;99.90;;;;;;2036368;29;20111;-73
2023/03/13 03:33:30;;;;;;;13.55;2.90;;;11.70;99.90;;;;;;2038124;29;20078;-73
2023/03/13 03:34:31;;;;;;;14.02;3.47;;;11.60;99.90;;;;;;2037362;29;20047;-73
2023/03/13 03:35:32;;;;;;;15.15;3.92;;;11.60;99.90;;;;;;2034980;29;20036;-73
2023/03/13 03:36:33;;;;;;;11.30;3.30;;;11.60;99.90;;;;;;2039006;29;20035;-74
2023/03/13 03:37:34;;;;;;;14.85;3.40;;;11.70;99.90;;;;;;2036539;29;20070;-73
2023/03/13 03:38:35;;;;;;;12.07;3.35;;;11.60;99.90;;;;;;2037317;29;20391;-73
2023/03/13 03:39:35;;;;;;;12.15;3.70;;;11.70;99.90;;;;;;2036187;29;20095;-73
2023/03/13 03:40:36;;;;;;;15.35;3.33;;;11.70;99.90;;;;;;2034599;29;20080;-74
2023/03/13 03:41:36;;;;;;;16.10;2.90;;;11.70;99.90;;;;;;2036149;29;20106;-73
2023/03/13 03:42:37;;;;;;;9.57;3.15;;;11.70;99.90;;;;;;2036063;29;20108;-74
2023/03/13 03:43:37;;;;;;;10.00;3.35;;;11.70;99.90;;;;;;2036767;29;20562;-74
2023/03/13 03:44:38;;;;;;;11.38;3.08;;;11.70;99.90;;;;;;2036953;29;20075;-73
2023/03/13 03:45:39;;;;;;;14.07;3.78;;;11.70;99.90;;;;;;2036551;29;20099;-73
2023/03/13 03:46:39;;;;;;;9.60;3.47;;;11.70;99.90;;;;;;2035635;29;20024;-74
2023/03/13 03:47:40;;;;;;;12.35;3.47;;;11.70;99.90;;;;;;2034705;29;20090;-74
2023/03/13 03:48:41;;;;;;;10.45;2.92;;;11.70;99.90;;;;;;2037341;29;20028;-74
2023/03/13 03:49:41;;;;;;;12.15;3.47;;;11.70;99.90;;;;;;2037849;29;20546;-74
2023/03/13 03:50:42;;;;;;;11.07;3.03;;;11.70;99.90;;;;;;2036664;29;20028;-73
2023/03/13 03:51:42;;;;;;;8.25;2.63;;;11.70;99.90;;;;;;2035155;29;20015;-73
2023/03/13 03:52:43;;;;;;;10.23;2.75;;;11.70;99.90;;;;;;2035312;29;20032;-74
2023/03/13 03:53:43;;;;;;;11.15;2.90;;;11.70;99.90;;;;;;2034989;29;20036;-74
2023/03/13 03:54:44;;;;;;;11.70;3.03;;;11.70;99.90;;;;;;2037332;29;20070;-73
2023/03/13 03:55:44;;;;;;;7.53;2.33;;;11.70;99.90;;;;;;2029592;29;20569;-73
2023/03/13 03:56:45;;;;;;;9.25;2.97;;;11.70;99.90;;;;;;2028112;29;20036;-74
2023/03/13 03:57:45;;;;;;;10.93;2.78;;;11.70;99.90;;;;;;2034507;29;20122;-74
2023/03/13 03:58:46;;;;;;;8.52;2.38;;;11.70;99.90;;;;;;2028714;29;20028;-74
2023/03/13 03:59:46;;;;;;;10.02;2.70;;;11.70;99.90;;;;;;2029017;29;20091;-73
2023/03/13 04:00:47;;;;;;;7.55;2.72;;;11.70;99.90;;;;;;2037213;29;20034;-73
2023/03/13 04:01:48;;;;;;;6.53;2.50;;;11.70;99.90;;;;;;2036347;29;20165;-73
2023/03/13 04:02:48;;;;;;;10.70;2.92;;;11.80;99.90;;;;;;2036773;29;20064;-74
2023/03/13 04:03:49;;;;;;;9.23;2.78;;;11.80;99.90;;;;;;2035924;29;20036;-74
2023/03/13 04:04:49;;;;;;;9.20;2.03;;;11.80;99.90;;;;;;2029815;29;20032;-73
2023/03/13 04:05:50;;;;;;;8.40;2.83;;;11.80;99.90;;;;;;2029712;29;20024;-73
2023/03/13 04:06:51;;;;;;;5.10;2.10;;;11.80;99.90;;;;;;2036547;29;20074;-74
2023/03/13 04:07:51;;;;;;;9.57;2.70;;;11.80;99.90;;;;;;2034426;29;20068;-74
2023/03/13 04:08:52;;;;;;;8.27;2.35;;;11.80;99.90;;;;;;2036508;29;20074;-74
2023/03/13 04:09:52;;;;;;;8.52;2.38;;;11.80;99.90;;;;;;2034240;29;20031;-74
2023/03/13 04:10:53;;;;;;;7.82;2.53;;;11.80;99.90;;;;;;2035929;29;20035;-74
2023/03/13 04:11:53;;;;;;;9.48;2.60;;;11.80;99.90;;;;;;2035463;29;20043;-74
2023/03/13 04:12:54;;;;;;;7.38;1.85;;;11.80;99.90;;;;;;2030844;29;20044;-74
2023/03/13 04:13:54;;;;;;;6.68;2.08;;;11.80;99.90;;;;;;2029834;29;20035;-74
2023/03/13 04:14:55;;;;;;;9.15;2.40;;;11.90;99.90;;;;;;2036454;29;20034;-74
2023/03/13 04:15:55;;;;;;;6.93;2.35;;;11.90;99.90;;;;;;2035262;29;20023;-74
2023/03/13 04:16:56;;;;;;;10.05;2.22;;;11.90;99.90;;;;;;2030270;29;20088;-73
2023/03/13 04:17:56;;;;;;;7.38;2.10;;;11.90;99.90;;;;;;2029869;29;20032;-74
2023/03/13 04:18:57;;;;;;;6.00;2.58;;;11.90;99.90;;;;;;2036366;29;20607;-74
2023/03/13 04:19:58;;;;;;;7.53;2.10;;;11.90;99.90;;;;;;2035481;29;20032;-73
2023/03/13 04:21:03;;;;;;;6.28;2.60;;;11.90;99.90;;;;;;2036432;29;20034;-73
2023/03/13 04:22:04;;;;;;;7.40;2.33;;;11.90;99.90;;;;;;2034727;29;20115;-73
2023/03/13 04:23:04;;;;;;;5.95;2.35;;;11.90;99.90;;;;;;2037521;29;20487;-74
2023/03/13 04:24:05;;;;;;;4.65;1.90;;;11.90;99.90;;;;;;2035467;29;20438;-74
2023/03/13 04:25:06;;;;;;;5.28;2.10;;;11.90;99.90;;;;;;2035289;29;20023;-74
2023/03/13 04:26:07;;;;;;;5.78;2.30;;;12.00;99.90;;;;;;2034953;29;20091;-74
2023/03/13 04:27:08;;;;;;;4.80;1.70;;;11.90;99.90;;;;;;2035804;29;20020;-74
2023/03/13 04:28:08;;;;;;;8.90;2.35;;;12.00;99.90;;;;;;2034737;29;20024;-73
2023/03/13 04:29:09;;;;;;;5.32;2.40;;;12.00;99.90;;;;;;2034713;29;20036;-74
2023/03/13 04:30:10;;;;;;;5.63;1.63;;;12.00;99.90;;;;;;2037172;29;20024;-74
2023/03/13 04:31:10;;;;;;;7.57;2.65;;;12.00;99.90;;;;;;2029643;29;20066;-74
2023/03/13 04:32:11;;;;;;;3.60;1.90;;;11.90;99.90;;;;;;2030651;29;20036;-74
2023/03/13 04:33:11;;;;;;;6.82;2.10;;;12.00;99.90;;;;;;2036443;29;20067;-74
2023/03/13 04:34:12;;;;;;;7.35;2.25;;;12.00;99.90;;;;;;2035731;29;20035;-74
2023/03/13 04:35:12;;;;;;;7.68;2.30;;;12.00;99.90;;;;;;2037065;29;20054;-74
2023/03/13 04:36:13;;;;;;;5.93;1.85;;;12.00;99.90;;;;;;2036189;29;20035;-74
2023/03/13 04:37:13;;;;;;;9.38;2.40;;;12.00;99.90;;;;;;2036017;29;20032;-73
2023/03/13 04:38:14;;;;;;;5.32;1.85;;;12.00;99.90;;;;;;2034607;29;20048;-74
2023/03/13 04:39:14;;;;;;;2.70;1.48;;;12.00;99.90;;;;;;2035460;29;20476;-74
2023/03/13 04:40:15;;;;;;;3.08;1.70;;;12.00;99.90;;;;;;2035823;29;20518;-74
2023/03/13 04:41:16;;;;;;;3.83;1.90;;;12.00;99.90;;;;;;2034769;29;20059;-74
2023/03/13 04:42:16;;;;;;;6.07;1.90;;;12.00;99.90;;;;;;2036261;29;20028;-74
2023/03/13 04:43:17;;;;;;;4.55;1.88;;;12.00;99.90;;;;;;2036644;29;20832;-73
2023/03/13 04:44:17;;;;;;;5.97;1.92;;;12.10;99.90;;;;;;2036384;29;20039;-73
2023/03/13 04:45:18;;;;;;;3.13;1.60;;;12.10;99.90;;;;;;2034223;29;20032;-74
2023/03/13 04:46:19;;;;;;;3.65;1.40;;;12.10;99.90;;;;;;2035239;29;20483;-74
2023/03/13 04:47:19;;;;;;;6.75;2.03;;;12.10;99.90;;;;;;2036619;29;20031;-74
2023/03/13 04:48:20;;;;;;;5.88;1.70;;;12.10;99.90;;;;;;2036407;29;20024;-74
2023/03/13 04:49:20;;;;;;;4.40;1.88;;;12.10;99.90;;;;;;2035554;29;20024;-73
2023/03/13 04:50:21;;;;;;;2.80;1.42;;;12.10;99.90;;;;;;2034661;29;20031;-73
2023/03/13 04:51:21;;;;;;;4.13;1.85;;;12.10;99.90;;;;;;2036510;29;20023;-73
2023/03/13 04:52:22;;;;;;;4.60;1.73;;;12.10;99.90;;;;;;2034972;29;20031;-74
2023/03/13 04:53:23;;;;;;;4.40;1.90;;;12.10;99.90;;;;;;2036184;29;20099;-74
2023/03/13 04:54:23;;;;;;;7.80;2.40;;;12.10;99.90;;;;;;2036701;29;20024;-73
2023/03/13 04:55:24;;;;;;;4.32;2.10;;;12.10;99.90;;;;;;2036831;29;20035;-73
2023/03/13 04:56:26;;;;;;;4.78;1.80;;;12.10;99.90;;;;;;2035978;29;20028;-74
2023/03/13 04:57:26;;;;;;;7.45;2.10;;;12.10;99.90;;;;;;2036462;29;20096;-74
2023/03/13 04:58:27;;;;;;;2.83;1.65;;;12.20;99.90;;;;;;2037231;29;20035;-73
2023/03/13 04:59:28;;;;;;;5.63;2.28;;;12.20;99.90;;;;;;2033744;29;20035;-74
2023/03/13 05:00:28;;;;;;;5.05;2.10;;;12.20;99.90;;;;;;2034099;29;20421;-73
2023/03/13 05:01:29;;;;;;;4.22;1.50;;;12.20;99.90;;;;;;2026701;29;20043;-73
2023/03/13 05:02:30;;;;;;;2.88;1.38;;;12.20;99.90;;;;;;2027943;29;20032;-73
2023/03/13 05:03:30;;;;;;;4.72;1.77;;;12.20;99.90;;;;;;2035346;29;20064;-73
2023/03/13 05:04:31;;;;;;;4.55;1.80;;;12.20;99.90;;;;;;2036810;29;20410;-73
2023/03/13 05:05:35;;;;;;;4.25;1.52;;;12.20;99.90;;;;;;2037489;29;20020;-74
2023/03/13 05:06:36;;;;;;;3.50;1.63;;;12.20;99.90;;;;;;2036738;29;20602;-74
2023/03/13 05:07:36;;;;;;;3.45;1.55;;;12.20;99.90;;;;;;2036607;29;20024;-74
2023/03/13 05:08:37;;;;;;;4.45;2.00;;;12.20;99.90;;;;;;2036293;29;20076;-74
2023/03/13 05:09:37;;;;;;;3.45;1.60;;;12.20;99.90;;;;;;2027470;29;20059;-74
2023/03/13 05:10:38;;;;;;;4.50;2.25;;;12.30;99.90;;;;;;2025771;29;20432;-74
2023/03/13 05:11:40;;;;;;;5.88;1.80;;;12.30;99.90;;;;;;2036031;29;20047;-74
2023/03/13 05:12:41;;;;;;;5.28;1.80;;;12.30;99.90;;;;;;2035824;29;20098;-74
2023/03/13 05:13:41;;;;;;;3.08;1.48;;;12.30;99.90;;;;;;2036312;29;20036;-74
2023/03/13 05:14:42;;;;;;;3.80;1.80;;;12.30;99.90;;;;;;2035492;29;20103;-74
2023/03/13 05:15:43;;;;;;;4.00;1.88;;;12.30;99.90;;;;;;2036533;29;20040;-73
2023/03/13 05:16:43;;;;;;;3.75;2.00;;;12.30;99.90;;;;;;2036152;29;20103;-74
2023/03/13 05:17:44;;;;;;;3.08;1.73;;;12.30;99.90;;;;;;2036586;29;20055;-73
2023/03/13 05:18:45;;;;;;;4.32;1.50;;;12.30;99.90;;;;;;2035979;29;20042;-73
2023/03/13 05:19:45;;;;;;;2.80;1.55;;;12.30;99.90;;;;;;2025955;29;20516;-73
2023/03/13 05:20:46;;;;;;;6.53;1.73;;;12.30;99.90;;;;;;2027724;29;20106;-74